Monday, April 24, 2017, 10:49 PM EDT

KPHF, Williamsburg International Airport

Location: Newport News, VA, United States Lat: 37.133
Local Time: 10:49 PM EDT ( 2:49 GMT) Lon: -76.5
Time Zone: US/Eastern Elev: 42 ft

Show me the last for .
Show Decoded

2017-04-24 21:54 METAR KPHF 250154Z AUTO 05009G17KT 8SM OVC004 15/14 A2988 RMK AO2 SLP116
                 T01500144 =
2017-04-24 20:54 METAR KPHF 250054Z AUTO 06010G17KT 8SM OVC004 15/14 A2988 RMK AO2 RAE12 SLP116
                 P0001 T01500144 =
2017-04-24 19:54 METAR KPHF 242354Z AUTO 06008G17KT 6SM -RA BR OVC003 15/14 A2988 RMK AO2
                 RAB23E33B53 SLP119 P0000 60003 T01500144 10156 20144 51002 =
2017-04-24 19:28 METAR KPHF 242328Z AUTO 04010G18KT 3SM -RA BR OVC002 14/14 A2988 RMK AO2 RAB23
                 P0000 T01440139 =
2017-04-24 19:18 METAR KPHF 242318Z AUTO 04011KT 1 3/4SM BR OVC002 14/14 A2988 RMK AO2 T01440139
                 =
2017-04-24 18:54 METAR KPHF 242254Z AUTO 06010G16KT 2 1/2SM BR OVC003 15/14 A2988 =
2017-04-24 18:47 METAR KPHF 242247Z AUTO 05007KT 2 1/2SM BR OVC003 14/14 A2988 RMK AO2 RAE36
                 P0000 T01440144 =
2017-04-24 17:54 METAR KPHF 242154Z AUTO 05010KT 4SM -RA BR OVC003 15/14 A2989 RMK AO2 RAE12B45
                 SLP119 P0000 T01500139 =
2017-04-24 16:54 METAR KPHF 242054Z AUTO 05011G19KT 4SM -RA BR OVC004 14/14 A2988 RMK AO2 SLP117
                 P0001 60003 T01440139 56017 =
2017-04-24 15:54 METAR KPHF 241954Z AUTO 06013G21KT 5SM -RA BR OVC004 15/14 A2988 RMK AO2 SLP118
                 P0001 T01500139 =
2017-04-24 14:54 METAR KPHF 241854Z AUTO 05012KT 4SM -RA BR OVC003 15/14 A2991 RMK AO2
                 RAB06E37B51 SLP129 P0001 T01500144 =
2017-04-24 14:37 METAR KPHF 241837Z 06012G21KT 6SM BR OVC003 15/14 A2992 =
2017-04-24 14:15 METAR KPHF 241815Z 05013G19KT 2 1/2SM -RA BR OVC003 16/15 A2992 RMK AO2 RAB06
                 P0000 T01560150 =
2017-04-24 14:07 METAR KPHF 241807Z 05013G19KT 1 3/4SM -RA BR OVC003 16/15 A2992 RMK AO2 RAB06
                 P0000 T01560150 =
2017-04-24 13:54 METAR KPHF 241754Z 05013KT 2 1/2SM BR OVC003 16/15 A2993 RMK AO2 RAE1655 SLP134
                 P0000 60005 T01560150 10156 20128 56009 =
2017-04-24 13:50 METAR KPHF 241750Z 05011KT 2 1/2SM BR OVC003 16/15 A2993 RMK AO2 RAE1655 P0000 =
2017-04-24 12:54 METAR KPHF 241654Z 05010KT 6SM -RA BR OVC004 16/15 A2995 =
2017-04-24 12:35 METAR KPHF 241635Z 05008KT 6SM BR OVC004 16/15 A2995 RMK AO2 RAE27 P0001
                 T01560150 =
2017-04-24 11:54 METAR KPHF 241554Z 05008KT 5SM -RA BR OVC005 16/14 A2996 RMK AO2 SLP143 P0001
                 T01560144 =
2017-04-24 10:54 METAR KPHF 241454Z 06009KT 8SM -RA OVC005 15/14 A2996 RMK AO2 SLP145 P0001 60002
                 T01500144 58002 =
2017-04-24 09:54 METAR KPHF 241354Z 06012G16KT 5SM -RA BR OVC005 14/13 A2996 RMK AO2 RAB17 SLP145
                 P0001 T01440133 =
2017-04-24 08:54 METAR KPHF 241254Z 04010KT 7SM OVC005 13/13 A2997 RMK AO2 RAE22 SLP147 P0000
                 T01330128 =
2017-04-24 07:54 METAR KPHF 241154Z 05010G17KT 2SM -RA BR BKN006 OVC014 13/12 A2997 RMK AO2
                 RAE05B23 SLP147 P0002 60004 70014 T01280122 10133 20122 53002 =
2017-04-24 07:36 METAR KPHF 241136Z 04010KT 2SM -RA BR OVC006 13/12 A2997 RMK AO2 RAE05B23 CIG
                 004V010 P0001 T01280122 =
2017-04-24 07:02 METAR KPHF 241102Z 04009KT 5SM -RA BR BKN006 OVC012 13/12 A2997 RMK AO2 CIG
                 005V009 P0000 T01280122 =
2017-04-24 06:54 METAR KPHF 241054Z 04009KT 2 1/2SM -RA BR BKN006 OVC012 13/12 A2997 RMK AO2
                 RAB0959 CIG 005V009 SLP148 P0002 T01280122 =
2017-04-24 05:54 METAR KPHF 240954Z 04009KT 9SM OVC008 13/12 A2996 RMK AO2 CIG 006V011 SLP143
                 T01330122 =
2017-04-24 05:47 METAR KPHF 240947Z 04009KT 10SM OVC008 13/12 A2996 RMK AO2 CIG 006V011 T01280122
                 =
2017-04-24 05:18 METAR KPHF 240918Z 05008KT 10SM OVC010 13/12 A2996 RMK AO2 CIG 006V013 T01280122
                 =
2017-04-24 04:54 METAR KPHF 240854Z 04009KT 10SM OVC008 13/12 A2996 RMK AO2 CIG 006V011 SLP145
                 T01280117 56015 =
2017-04-24 03:54 METAR KPHF 240754Z 05009KT 9SM OVC009 13/12 A2996 RMK AO2 CIG 006V011 SLP146
                 T01280117 =
2017-04-24 02:54 METAR KPHF 240654Z 04010KT 9SM OVC007 12/11 A2998 RMK AO2 SLP150 T01220111 =
2017-04-24 01:54 METAR KPHF 240554Z 06011KT 6SM BR OVC006 12/11 A3001 RMK AO2 RAE32 CIG 005V011
                 SLP160 P0002 60006 T01220111 10122 20117 56020 =
2017-04-24 01:28 METAR KPHF 240528Z 07009KT 6SM -RA BR OVC007 12/11 A3002 RMK AO2 CIG 005V009
                 P0002 T01220111 =
2017-04-24 01:21 METAR KPHF 240521Z 06009KT 2 1/2SM -RA BR OVC007 12/11 A3002 RMK AO2 CIG 005V009
                 P0002 T01220111 =
2017-04-24 00:54 METAR KPHF 240454Z 06011KT 6SM -RA BR OVC008 12/11 A3003 RMK AO2 RAB01 CIG
                 006V013 SLP168 P0000 T01220111 401440117 =
2017-04-24 00:33 METAR KPHF 240433Z 06010KT 5SM -RA BR FEW009 BKN013 OVC037 12/11 A3003 RMK AO2
                 RAB01 P0000 T01220111 =
2017-04-23 23:54 METAR KPHF 240354Z 06009KT 10SM BKN017 OVC024 12/11 A3004 RMK AO2 RAE23 SLP172
                 P0000 T01220106 =
2017-04-23 23:44 METAR KPHF 240344Z 06010KT 10SM BKN017 BKN024 OVC055 12/11 A3005 RMK AO2 RAE23
                 P0000 T01220106 =
2017-04-23 23:26 METAR KPHF 240326Z 05007KT 10SM SCT016 BKN050 OVC060 12/11 A3005 RMK AO2 RAE23
                 P0000 T01220106 =
2017-04-23 22:54 METAR KPHF 240254Z 06006KT 9SM -RA BKN015 BKN019 OVC047 12/11 A3007 RMK AO2
                 SLP181 P0004 60004 T01170111 50009 =

Support USWX by starting your Amazon purchase here.